createdAt,value
2022-08-30T00:02:25.335Z,87.71
2022-08-30T00:04:55.164Z,87.22
2022-08-30T00:07:23.415Z,88.37
2022-08-30T00:09:51.620Z,89.00
2022-08-30T00:12:20.921Z,89.55
2022-08-30T00:14:49.516Z,89.93
2022-08-30T00:17:17.186Z,89.17
2022-08-30T00:19:47.110Z,89.08
2022-08-30T00:22:14.770Z,89.04
2022-08-30T00:24:42.989Z,88.95
2022-08-30T00:27:10.634Z,89.13
2022-08-30T00:29:39.026Z,89.38
2022-08-30T00:32:06.785Z,88.95
2022-08-30T00:34:35.339Z,88.69
2022-08-30T00:37:04.512Z,89.38
2022-08-30T00:39:33.085Z,89.87
2022-08-30T00:42:00.792Z,89.92
2022-08-30T00:44:28.823Z,89.87
2022-08-30T00:46:56.551Z,89.69
2022-08-30T00:49:25.779Z,89.81
2022-08-30T00:51:54.382Z,89.55
2022-08-30T00:54:26.350Z,89.37
2022-08-30T00:56:54.493Z,89.53
2022-08-30T00:59:24.328Z,89.37
2022-08-30T01:01:52.252Z,89.11
2022-08-30T01:04:21.541Z,89.23
2022-08-30T01:06:49.235Z,89.17
2022-08-30T01:09:17.428Z,89.10
2022-08-30T01:11:47.644Z,88.86
2022-08-30T01:14:17.195Z,88.89
2022-08-30T01:16:47.046Z,88.89
2022-08-30T01:19:26.867Z,88.50
2022-08-30T01:22:01.204Z,88.69
2022-08-30T01:24:31.862Z,88.76
2022-08-30T01:26:59.990Z,88.80
2022-08-30T01:29:29.298Z,89.15
2022-08-30T01:31:57.168Z,89.32
2022-08-30T01:34:25.619Z,89.35
2022-08-30T01:36:53.307Z,89.48
2022-08-30T01:39:21.221Z,89.56
2022-08-30T01:41:50.258Z,89.34
2022-08-30T01:44:17.979Z,89.42
2022-08-30T01:46:48.976Z,89.43
2022-08-30T01:49:27.472Z,89.51
2022-08-30T01:52:01.083Z,89.20
2022-08-30T01:54:33.216Z,89.46
2022-08-30T01:57:07.996Z,89.33
2022-08-30T01:59:35.664Z,89.38
2022-08-30T02:02:04.716Z,89.33
2022-08-30T02:04:32.666Z,89.05
2022-08-30T02:07:01.388Z,89.03
2022-08-30T02:09:29.071Z,88.41
2022-08-30T02:11:57.930Z,88.17
2022-08-30T02:14:27.558Z,88.47
2022-08-30T02:16:55.591Z,88.52
2022-08-30T02:19:23.342Z,88.76
2022-08-30T02:21:51.878Z,88.45
2022-08-30T02:24:19.604Z,88.79
2022-08-30T02:26:48.894Z,88.68
2022-08-30T02:29:16.932Z,88.91
2022-08-30T02:31:46.705Z,88.57
2022-08-30T02:34:14.838Z,88.61
2022-08-30T02:36:42.568Z,88.36
2022-08-30T02:39:11.319Z,88.35
2022-08-30T02:41:40.299Z,88.63
2022-08-30T02:44:09.150Z,88.67
2022-08-30T02:46:36.825Z,88.76
2022-08-30T02:49:30.389Z,88.96
2022-08-30T02:51:56.863Z,88.54
2022-08-30T02:54:24.643Z,87.56
2022-08-30T02:56:52.954Z,87.87
2022-08-30T02:59:20.984Z,87.74
2022-08-30T03:01:49.325Z,87.82
2022-08-30T03:04:19.003Z,87.76
2022-08-30T03:06:54.923Z,87.75
2022-08-30T03:09:22.578Z,87.69
2022-08-30T03:11:50.563Z,86.87
2022-08-30T03:14:18.268Z,86.74
2022-08-30T03:16:46.362Z,87.27
2022-08-30T03:19:14.140Z,87.63
2022-08-30T03:21:43.548Z,88.02
2022-08-30T03:24:13.565Z,87.91
2022-08-30T03:26:46.021Z,88.43
2022-08-30T03:29:14.219Z,88.19
2022-08-30T03:31:52.663Z,88.27
2022-08-30T03:34:22.135Z,88.45
2022-08-30T03:36:52.150Z,88.66
2022-08-30T03:39:20.891Z,89.06
2022-08-30T03:41:48.888Z,89.19
2022-08-30T03:44:17.167Z,88.77
2022-08-30T03:46:45.543Z,88.33
2022-08-30T03:49:13.218Z,88.44
2022-08-30T03:51:41.206Z,88.72
2022-08-30T03:54:10.559Z,88.71
2022-08-30T03:56:39.176Z,88.86
2022-08-30T03:59:07.131Z,88.72
2022-08-30T04:01:35.150Z,88.70
2022-08-30T04:04:03.223Z,88.74
2022-08-30T04:06:32.136Z,88.84
2022-08-30T04:08:59.799Z,89.06
2022-08-30T04:11:29.415Z,89.28
2022-08-30T04:13:57.106Z,89.17
2022-08-30T04:16:26.801Z,89.19
2022-08-30T04:18:54.591Z,89.41
2022-08-30T04:21:23.396Z,89.19
2022-08-30T04:23:51.017Z,89.11
2022-08-30T04:26:19.775Z,89.22
2022-08-30T04:28:48.855Z,88.49
2022-08-30T04:31:19.300Z,88.64
2022-08-30T04:33:47.055Z,89.01
2022-08-30T04:36:15.383Z,89.16
2022-08-30T04:38:43.798Z,89.16
2022-08-30T04:41:13.228Z,89.51
2022-08-30T04:43:41.085Z,89.32
2022-08-30T04:46:10.600Z,89.13
2022-08-30T04:48:39.638Z,89.13
2022-08-30T04:51:08.637Z,89.68
2022-08-30T04:53:36.976Z,89.39
2022-08-30T04:56:08.913Z,89.54
2022-08-30T04:58:37.152Z,89.43
2022-08-30T05:01:05.466Z,89.46
2022-08-30T05:03:35.003Z,89.42
2022-08-30T05:06:02.631Z,89.26
2022-08-30T05:08:30.589Z,89.06
2022-08-30T05:10:58.231Z,89.09
2022-08-30T05:13:35.187Z,88.74
2022-08-30T05:16:07.910Z,88.72
2022-08-30T05:18:38.272Z,88.62
2022-08-30T05:21:08.771Z,88.74
2022-08-30T05:23:37.299Z,88.18
2022-08-30T05:26:09.058Z,88.06
2022-08-30T05:28:37.219Z,88.00
2022-08-30T05:31:14.347Z,87.77
2022-08-30T05:33:43.796Z,87.36
2022-08-30T05:36:12.747Z,86.87
2022-08-30T05:38:40.801Z,87.17
2022-08-30T05:41:10.935Z,87.14
2022-08-30T05:43:39.127Z,86.39
2022-08-30T05:46:09.186Z,86.38
2022-08-30T05:48:37.964Z,86.64
2022-08-30T05:51:11.367Z,86.90
2022-08-30T05:53:40.088Z,87.29
2022-08-30T05:56:10.496Z,86.49
2022-08-30T05:58:38.913Z,86.43
2022-08-30T06:01:07.052Z,86.24
2022-08-30T06:03:35.270Z,86.61
2022-08-30T06:06:03.641Z,86.22
2022-08-30T06:08:32.636Z,86.09
2022-08-30T06:11:00.249Z,85.82
2022-08-30T06:13:28.604Z,85.94
2022-08-30T06:15:56.318Z,85.47
2022-08-30T06:18:28.646Z,85.15
2022-08-30T06:20:56.525Z,84.96
2022-08-30T06:23:24.569Z,84.85
2022-08-30T06:25:53.595Z,84.72
2022-08-30T06:28:21.643Z,84.26
2022-08-30T06:30:49.331Z,84.33
2022-08-30T06:33:17.284Z,84.34
2022-08-30T06:35:58.452Z,84.02
2022-08-30T06:38:28.107Z,83.64
2022-08-30T06:40:57.073Z,83.46
2022-08-30T06:43:25.035Z,83.08
2022-08-30T06:45:53.213Z,82.82
2022-08-30T06:48:20.854Z,82.57
2022-08-30T06:50:54.329Z,81.93
2022-08-30T06:53:22.888Z,81.69
2022-08-30T06:55:58.361Z,81.80
2022-08-30T06:58:26.330Z,81.59
2022-08-30T07:00:54.432Z,81.24
2022-08-30T07:03:22.203Z,80.70
2022-08-30T07:05:50.515Z,80.76
2022-08-30T07:08:18.973Z,80.69
2022-08-30T07:10:47.515Z,80.58
2022-08-30T07:13:17.171Z,80.60
2022-08-30T07:15:46.721Z,79.90
2022-08-30T07:18:32.549Z,79.08
2022-08-30T07:21:06.805Z,78.97
2022-08-30T07:23:34.710Z,78.94
2022-08-30T07:26:06.112Z,78.83
2022-08-30T07:28:37.927Z,78.90
2022-08-30T07:33:40.383Z,78.21
2022-08-30T07:36:09.495Z,78.02
2022-08-30T07:38:37.131Z,78.28
2022-08-30T07:41:05.804Z,77.14
2022-08-30T07:43:38.773Z,77.82
2022-08-30T07:46:09.140Z,77.13
2022-08-30T07:48:36.957Z,76.95
2022-08-30T07:51:05.779Z,76.86
2022-08-30T07:53:33.425Z,76.57
2022-08-30T07:56:01.931Z,77.26
2022-08-30T07:58:33.394Z,75.87
2022-08-30T08:01:02.399Z,75.27
2022-08-30T08:03:30.651Z,75.21
2022-08-30T08:05:58.845Z,74.65
2022-08-30T08:08:27.287Z,74.13
2022-08-30T08:10:55.033Z,74.03
2022-08-30T08:13:23.517Z,73.22
2022-08-30T08:15:56.043Z,73.52
2022-08-30T08:18:25.018Z,73.76
2022-08-30T08:20:53.164Z,73.32
2022-08-30T08:23:22.690Z,72.69
2022-08-30T08:25:51.177Z,71.53
2022-08-30T08:28:19.227Z,71.49
2022-08-30T08:30:48.544Z,71.66
2022-08-30T08:33:16.308Z,71.53
2022-08-30T08:35:45.610Z,69.46
2022-08-30T08:38:13.308Z,67.72
2022-08-30T08:40:49.818Z,67.72
2022-08-30T08:43:20.365Z,67.13
2022-08-30T08:45:56.605Z,67.14
2022-08-30T08:48:51.941Z,65.92
2022-08-30T08:51:42.415Z,65.37
2022-08-30T08:54:14.267Z,64.60
2022-08-30T08:56:42.127Z,64.08
2022-08-30T08:59:11.533Z,61.69
2022-08-30T09:01:40.592Z,61.66
2022-08-30T09:04:12.851Z,61.94
2022-08-30T09:06:53.316Z,60.49
2022-08-30T09:09:24.913Z,57.95
2022-08-30T09:11:52.640Z,58.14
2022-08-30T09:14:30.030Z,59.27
2022-08-30T09:17:01.115Z,56.89
2022-08-30T09:19:41.916Z,57.95
2022-08-30T09:22:23.118Z,57.70
2022-08-30T09:24:53.588Z,56.35
2022-08-30T09:27:25.342Z,55.93
2022-08-30T09:29:57.266Z,55.76
2022-08-30T09:32:35.250Z,54.81
2022-08-30T09:35:04.364Z,53.37
2022-08-30T09:37:37.743Z,53.22
2022-08-30T09:40:16.359Z,53.88
2022-08-30T09:43:01.241Z,52.84
2022-08-30T09:45:34.825Z,52.03
2022-08-30T09:48:21.543Z,51.25
2022-08-30T09:50:57.673Z,51.34
2022-08-30T09:53:35.323Z,50.57
2022-08-30T09:56:10.241Z,50.07
2022-08-30T09:58:58.581Z,49.10
2022-08-30T10:01:31.776Z,48.59
2022-08-30T10:04:06.748Z,48.92
2022-08-30T10:06:43.065Z,48.52
2022-08-30T10:09:24.086Z,48.31
2022-08-30T10:12:02.354Z,47.73
2022-08-30T10:14:42.698Z,48.06
2022-08-30T10:17:17.593Z,48.65
2022-08-30T10:20:08.273Z,44.88
2022-08-30T10:22:41.783Z,45.57
2022-08-30T10:25:16.143Z,44.56
2022-08-30T10:27:48.904Z,43.46
2022-08-30T10:30:19.339Z,45.59
2022-08-30T10:32:53.215Z,45.83
2022-08-30T10:35:24.183Z,44.96
2022-08-30T10:37:57.036Z,45.89
2022-08-30T10:40:47.108Z,44.11
2022-08-30T10:43:23.287Z,46.57
2022-08-30T10:45:54.442Z,46.21
2022-08-30T10:48:26.257Z,45.89
2022-08-30T10:51:00.466Z,46.02
2022-08-30T10:53:33.095Z,44.29
2022-08-30T10:56:07.339Z,44.27
2022-08-30T10:58:37.494Z,44.06
2022-08-30T11:01:28.588Z,42.96
2022-08-30T11:04:33.924Z,41.87
2022-08-30T11:07:13.511Z,43.51
2022-08-30T11:09:53.356Z,41.62
2022-08-30T11:12:32.213Z,42.16
2022-08-30T11:15:01.352Z,41.46
2022-08-30T11:17:32.823Z,42.33
2022-08-30T11:20:03.213Z,41.43
2022-08-30T11:22:38.666Z,42.12
2022-08-30T11:25:12.342Z,41.52
2022-08-30T11:27:48.756Z,43.24
2022-08-30T11:30:57.224Z,41.13
2022-08-30T11:33:42.204Z,41.03
2022-08-30T11:37:01.890Z,42.47
2022-08-30T11:40:01.831Z,42.81
2022-08-30T11:42:38.690Z,42.09
2022-08-30T11:45:46.139Z,44.41
2022-08-30T11:48:53.882Z,44.37
2022-08-30T11:51:50.837Z,44.85
2022-08-30T11:54:42.415Z,45.55
2022-08-30T11:57:18.865Z,44.27
2022-08-30T11:59:58.354Z,45.16
2022-08-30T12:02:49.083Z,44.07
2022-08-30T12:05:51.205Z,46.33
2022-08-30T12:09:02.935Z,45.79
2022-08-30T12:11:57.066Z,45.26
2022-08-30T12:14:40.848Z,46.12
2022-08-30T12:17:33.779Z,46.47
2022-08-30T12:20:04.780Z,46.04
2022-08-30T12:22:38.089Z,47.09
2022-08-30T12:25:18.315Z,46.50
2022-08-30T12:27:46.863Z,47.34
2022-08-30T12:30:15.330Z,46.59
2022-08-30T12:32:48.761Z,46.29
2022-08-30T12:35:23.262Z,45.79
2022-08-30T12:38:00.550Z,48.27
2022-08-30T12:40:31.333Z,48.11
2022-08-30T12:43:01.291Z,47.16
2022-08-30T12:45:34.425Z,46.68
2022-08-30T12:48:06.291Z,45.10
2022-08-30T12:50:38.668Z,45.44
2022-08-30T12:53:13.578Z,44.93
2022-08-30T12:55:52.792Z,45.23
2022-08-30T12:58:39.743Z,46.26
2022-08-30T13:01:20.328Z,45.55
2022-08-30T13:04:02.213Z,45.31
2022-08-30T13:06:44.827Z,45.79
2022-08-30T13:09:24.770Z,46.56
2022-08-30T13:11:52.662Z,47.73
2022-08-30T13:14:31.214Z,46.39
2022-08-30T13:17:10.200Z,46.20
2022-08-30T13:19:41.079Z,46.91
2022-08-30T13:22:25.986Z,47.69
2022-08-30T13:24:55.407Z,46.58
2022-08-30T13:27:24.217Z,45.73
2022-08-30T13:29:52.074Z,46.15
2022-08-30T13:32:20.496Z,47.72
2022-08-30T13:34:48.211Z,46.88
2022-08-30T13:40:10.506Z,47.28
2022-08-30T13:42:40.413Z,47.64
2022-08-30T13:45:40.911Z,47.97
2022-08-30T13:47:56.747Z,46.29
2022-08-30T13:50:24.474Z,46.79
2022-08-30T13:52:56.514Z,47.61
2022-08-30T13:55:24.243Z,47.50
2022-08-30T13:57:53.961Z,46.99
2022-08-30T14:00:22.675Z,46.45
2022-08-30T14:02:55.098Z,47.00
2022-08-30T14:11:05.341Z,48.66
2022-08-30T14:13:33.957Z,48.56
2022-08-30T14:18:56.167Z,47.63
2022-08-30T14:21:25.045Z,49.54
2022-08-30T14:23:54.275Z,48.32
2022-08-30T14:26:25.291Z,47.88
2022-08-30T14:28:54.215Z,47.53
2022-08-30T14:31:22.107Z,46.30
2022-08-30T14:33:50.062Z,46.94
2022-08-30T14:36:18.068Z,48.16
2022-08-30T14:38:45.892Z,46.36
2022-08-30T14:41:15.364Z,44.73
2022-08-30T14:43:42.998Z,46.30
2022-08-30T14:46:12.314Z,45.58
2022-08-30T14:48:41.613Z,46.25
2022-08-30T14:51:16.674Z,47.00
2022-08-30T14:53:45.269Z,47.71
2022-08-30T14:56:19.645Z,47.55
2022-08-30T14:58:48.997Z,47.30
2022-08-30T15:01:16.744Z,46.63
2022-08-30T15:03:44.997Z,47.87
2022-08-30T15:06:13.271Z,47.97
2022-08-30T15:08:41.487Z,46.92
2022-08-30T15:11:11.858Z,47.00
2022-08-30T15:13:41.258Z,46.73
2022-08-30T15:16:15.497Z,47.52
2022-08-30T15:18:43.865Z,46.95
2022-08-30T15:21:11.831Z,46.81
2022-08-30T15:23:40.207Z,46.70
2022-08-30T15:26:09.744Z,45.87
2022-08-30T15:28:37.896Z,45.66
2022-08-30T15:31:09.458Z,45.32
2022-08-30T15:33:37.524Z,44.49
2022-08-30T15:36:06.305Z,44.27
2022-08-30T15:38:33.947Z,45.04
2022-08-30T15:41:04.458Z,43.63
2022-08-30T15:43:32.479Z,43.47
2022-08-30T15:46:19.755Z,42.96
2022-08-30T15:48:49.287Z,44.59
2022-08-30T15:51:17.685Z,44.27
2022-08-30T15:53:46.023Z,43.79
2022-08-30T15:56:15.304Z,44.31
2022-08-30T15:58:43.503Z,45.42
2022-08-30T16:01:13.299Z,47.03
2022-08-30T16:03:41.900Z,46.15
2022-08-30T16:06:16.457Z,48.08
2022-08-30T16:08:44.438Z,47.76
2022-08-30T16:11:16.571Z,48.43
2022-08-30T16:13:50.255Z,48.96
2022-08-30T16:16:19.901Z,49.18
2022-08-30T16:18:53.850Z,49.50
2022-08-30T16:21:26.514Z,49.91
2022-08-30T16:23:56.419Z,49.33
2022-08-30T16:26:26.030Z,48.71
2022-08-30T16:28:54.647Z,48.79
2022-08-30T16:31:24.019Z,48.28
2022-08-30T16:33:53.015Z,48.35
2022-08-30T16:36:23.234Z,48.63
2022-08-30T16:38:55.959Z,49.34
2022-08-30T16:41:26.160Z,49.39
2022-08-30T16:43:54.776Z,50.22
2022-08-30T16:46:27.806Z,51.46
2022-08-30T16:48:57.528Z,51.91
2022-08-30T16:51:29.634Z,51.99
2022-08-30T16:53:59.139Z,52.07
2022-08-30T16:56:29.879Z,52.41
2022-08-30T16:59:01.993Z,52.47
2022-08-30T17:01:34.647Z,52.35
2022-08-30T17:04:03.582Z,53.01
2022-08-30T17:06:33.569Z,53.83
2022-08-30T17:09:03.525Z,54.32
2022-08-30T17:11:33.323Z,54.48
2022-08-30T17:14:01.691Z,54.97
2022-08-30T17:16:30.240Z,55.82
2022-08-30T17:18:59.778Z,56.15
2022-08-30T17:21:29.668Z,56.58
2022-08-30T17:24:02.595Z,57.15
2022-08-30T17:26:32.440Z,57.11
2022-08-30T17:29:00.523Z,57.52
2022-08-30T17:31:30.893Z,58.10
2022-08-30T17:34:03.174Z,58.60
2022-08-30T17:36:37.075Z,58.22
2022-08-30T17:39:10.965Z,58.92
2022-08-30T17:41:40.107Z,58.99
2022-08-30T17:44:13.322Z,58.56
2022-08-30T17:46:41.121Z,58.84
2022-08-30T17:49:10.437Z,59.58
2022-08-30T17:51:41.119Z,59.48
2022-08-30T17:54:11.954Z,60.11
2022-08-30T17:56:39.880Z,60.86
2022-08-30T17:59:09.208Z,61.56
2022-08-30T18:01:37.999Z,62.71
2022-08-30T18:04:06.658Z,64.16
2022-08-30T18:06:34.909Z,65.03
2022-08-30T18:09:03.277Z,65.19
2022-08-30T18:11:32.622Z,64.92
2022-08-30T18:14:00.731Z,65.06
2022-08-30T18:16:28.414Z,65.10
2022-08-30T18:18:57.483Z,65.11
2022-08-30T18:21:44.729Z,65.23
2022-08-30T18:24:12.753Z,65.22
2022-08-30T18:26:43.132Z,65.36
2022-08-30T18:29:12.006Z,65.94
2022-08-30T18:31:39.767Z,66.02
2022-08-30T18:34:12.260Z,66.31
2022-08-30T18:36:40.565Z,66.48
2022-08-30T18:39:09.559Z,66.58
2022-08-30T18:41:42.203Z,66.79
2022-08-30T18:44:27.341Z,67.12
2022-08-30T18:46:57.100Z,66.83
2022-08-30T18:49:25.758Z,67.11
2022-08-30T18:51:53.677Z,67.42
2022-08-30T18:54:22.338Z,67.67
2022-08-30T18:56:50.783Z,67.61
2022-08-30T18:59:21.182Z,67.90
2022-08-30T19:01:49.653Z,67.43
2022-08-30T19:04:22.451Z,67.84
2022-08-30T19:06:58.283Z,67.52
2022-08-30T19:09:26.757Z,67.69
2022-08-30T19:11:54.947Z,67.72
2022-08-30T19:14:24.266Z,67.75
2022-08-30T19:16:56.255Z,68.11
2022-08-30T19:19:24.515Z,68.56
2022-08-30T19:21:52.633Z,68.28
2022-08-30T19:24:20.537Z,68.93
2022-08-30T19:26:49.106Z,69.36
2022-08-30T19:29:16.997Z,69.59
2022-08-30T19:31:46.109Z,69.76
2022-08-30T19:34:13.769Z,69.66
2022-08-30T19:36:41.470Z,70.11
2022-08-30T19:39:09.939Z,70.31
2022-08-30T19:41:38.210Z,71.07
2022-08-30T19:44:07.002Z,70.81
2022-08-30T19:46:34.768Z,70.65
2022-08-30T19:49:07.017Z,70.78
2022-08-30T19:51:34.666Z,70.50
2022-08-30T19:54:03.564Z,70.83
2022-08-30T19:56:31.366Z,71.31
2022-08-30T19:58:59.593Z,71.56
2022-08-30T20:01:33.368Z,71.75
2022-08-30T20:04:02.612Z,71.92
2022-08-30T20:06:32.353Z,72.66
2022-08-30T20:09:00.705Z,73.12
2022-08-30T20:11:29.492Z,74.42
2022-08-30T20:13:58.519Z,74.77
2022-08-30T20:16:33.198Z,74.64
2022-08-30T20:19:06.785Z,75.24
2022-08-30T20:21:36.739Z,75.34
2022-08-30T20:24:09.612Z,75.43
2022-08-30T20:26:37.890Z,75.49
2022-08-30T20:29:07.424Z,75.31
2022-08-30T20:31:36.050Z,75.52
2022-08-30T20:34:04.891Z,75.61
2022-08-30T20:36:33.603Z,76.07
2022-08-30T20:39:04.476Z,75.89
2022-08-30T20:41:32.244Z,76.20
2022-08-30T20:44:01.839Z,76.23
2022-08-30T20:46:33.477Z,76.04
2022-08-30T20:49:03.574Z,76.37
2022-08-30T20:51:31.225Z,76.37
2022-08-30T20:54:04.854Z,75.87
2022-08-30T20:56:34.298Z,76.09
2022-08-30T20:59:03.575Z,76.16
2022-08-30T21:01:32.153Z,76.14
2022-08-30T21:04:00.137Z,75.86
2022-08-30T21:06:27.898Z,76.17
2022-08-30T21:08:55.659Z,76.46
2022-08-30T21:11:26.436Z,76.42
2022-08-30T21:13:54.379Z,76.48
2022-08-30T21:16:22.263Z,77.14
2022-08-30T21:18:50.323Z,77.29
2022-08-30T21:21:21.416Z,77.33
2022-08-30T21:23:49.459Z,76.87
2022-08-30T21:26:18.674Z,76.74
2022-08-30T21:28:48.499Z,76.46
2022-08-30T21:31:18.464Z,76.35
2022-08-30T21:33:48.246Z,75.99
2022-08-30T21:36:33.793Z,75.73
2022-08-30T21:39:01.919Z,75.51
2022-08-30T21:41:31.432Z,75.32
2022-08-30T21:44:02.886Z,75.16
2022-08-30T21:46:32.233Z,74.87
2022-08-30T21:49:01.915Z,74.90
2022-08-30T21:51:32.938Z,75.21
2022-08-30T21:54:02.294Z,75.24
2022-08-30T21:56:30.246Z,75.35
2022-08-30T21:58:57.920Z,75.42
2022-08-30T22:01:29.128Z,75.38
2022-08-30T22:03:59.309Z,75.21
2022-08-30T22:06:30.695Z,75.21
2022-08-30T22:09:01.065Z,74.96
2022-08-30T22:11:31.031Z,75.29
2022-08-30T22:13:59.523Z,75.29
2022-08-30T22:16:29.864Z,75.14
2022-08-30T22:18:58.582Z,75.01
2022-08-30T22:21:28.446Z,75.37
2022-08-30T22:23:56.810Z,75.55
2022-08-30T22:26:25.513Z,75.20
2022-08-30T22:28:54.729Z,75.45
2022-08-30T22:31:23.652Z,75.64
2022-08-30T22:33:55.170Z,75.45
2022-08-30T22:36:32.175Z,76.15
2022-08-30T22:39:01.952Z,76.60
2022-08-30T22:41:33.936Z,76.93
2022-08-30T22:44:03.381Z,76.83
2022-08-30T22:46:33.808Z,77.04
2022-08-30T22:49:04.353Z,77.15
2022-08-30T22:51:32.112Z,77.22
2022-08-30T22:54:01.159Z,77.77
2022-08-30T22:56:29.724Z,78.44
2022-08-30T22:58:58.115Z,78.99
2022-08-30T23:01:28.458Z,78.65
2022-08-30T23:03:57.560Z,78.67
2022-08-30T23:06:26.642Z,78.84
2022-08-30T23:08:54.700Z,78.93
2022-08-30T23:11:22.759Z,78.74
2022-08-30T23:13:51.807Z,78.85
2022-08-30T23:16:20.814Z,78.34
2022-08-30T23:18:48.622Z,78.10
2022-08-30T23:21:19.050Z,78.45
2022-08-30T23:24:06.466Z,78.63
2022-08-30T23:26:51.765Z,79.01
2022-08-30T23:29:37.521Z,78.59
2022-08-30T23:32:23.274Z,77.72
2022-08-30T23:35:08.757Z,77.27
2022-08-30T23:37:54.536Z,76.73
2022-08-30T23:40:42.234Z,75.68
2022-08-30T23:43:28.273Z,75.52
2022-08-30T23:46:18.921Z,75.80
2022-08-30T23:49:05.271Z,75.96
2022-08-30T23:51:50.827Z,76.49
2022-08-30T23:54:37.146Z,76.52
2022-08-30T23:57:24.222Z,76.03
